createdAt,value
2023-03-28T00:01:17.277Z,69.11
2023-03-28T00:06:19.091Z,68.92
2023-03-28T00:11:22.043Z,68.41
2023-03-28T00:16:25.637Z,68.87
2023-03-28T00:21:32.451Z,69.22
2023-03-28T00:26:35.673Z,69.36
2023-03-28T00:31:38.945Z,69.37
2023-03-28T00:36:41.606Z,68.40
2023-03-28T00:41:44.406Z,68.48
2023-03-28T00:46:46.399Z,68.68
2023-03-28T00:51:57.229Z,68.18
2023-03-28T00:57:01.314Z,67.97
2023-03-28T01:02:03.369Z,68.24
2023-03-28T01:07:06.053Z,68.10
2023-03-28T01:12:11.116Z,67.27
2023-03-28T01:17:12.875Z,67.43
2023-03-28T01:22:56.502Z,68.11
2023-03-28T01:28:34.083Z,68.81
2023-03-28T01:33:52.090Z,68.14
2023-03-28T01:39:04.981Z,67.71
2023-03-28T01:44:14.924Z,66.88
2023-03-28T01:49:26.641Z,66.76
2023-03-28T01:54:37.383Z,66.49
2023-03-28T01:59:43.428Z,67.38
2023-03-28T02:05:02.868Z,67.72
2023-03-28T02:10:06.818Z,68.08
2023-03-28T02:15:23.723Z,69.05
2023-03-28T02:20:44.913Z,68.88
2023-03-28T02:26:09.622Z,68.15
2023-03-28T02:31:29.846Z,68.26
2023-03-28T02:37:05.541Z,69.35
2023-03-28T02:42:23.609Z,68.32
2023-03-28T02:47:35.449Z,69.36
2023-03-28T02:52:37.001Z,71.17
2023-03-28T02:57:43.335Z,72.70
2023-03-28T03:02:49.313Z,73.37
2023-03-28T03:07:52.120Z,73.97
2023-03-28T03:12:54.089Z,75.37
2023-03-28T03:17:56.213Z,74.47
2023-03-28T03:23:01.274Z,73.87
2023-03-28T03:28:03.272Z,74.23
2023-03-28T03:33:05.870Z,74.92
2023-03-28T03:38:08.400Z,75.35
2023-03-28T03:43:10.045Z,75.93
2023-03-28T03:48:13.967Z,76.21
2023-03-28T03:53:16.513Z,76.94
2023-03-28T03:58:24.986Z,77.19
2023-03-28T04:03:26.998Z,76.49
2023-03-28T04:08:29.343Z,78.17
2023-03-28T04:13:30.983Z,76.69
2023-03-28T04:18:36.349Z,76.70
2023-03-28T04:23:43.752Z,77.28
2023-03-28T04:29:05.905Z,79.22
2023-03-28T04:34:10.946Z,78.60
2023-03-28T04:39:22.903Z,76.46
2023-03-28T04:44:43.072Z,76.14
2023-03-28T04:49:48.714Z,77.41
2023-03-28T04:54:51.459Z,79.40
2023-03-28T04:59:56.575Z,79.09
2023-03-28T05:05:18.495Z,77.69
2023-03-28T05:10:20.308Z,76.57
2023-03-28T05:15:23.376Z,75.29
2023-03-28T05:20:55.137Z,75.73
2023-03-28T05:25:58.893Z,75.99
2023-03-28T05:31:03.953Z,75.32
2023-03-28T05:36:06.295Z,75.36
2023-03-28T05:41:08.629Z,74.37
2023-03-28T05:46:10.853Z,72.93
2023-03-28T05:51:17.048Z,72.85
2023-03-28T05:56:18.669Z,71.84
2023-03-28T06:01:23.254Z,71.95
2023-03-28T06:06:28.884Z,70.61
2023-03-28T06:11:30.717Z,70.36
2023-03-28T06:16:43.668Z,69.64
2023-03-28T06:21:45.778Z,69.18
2023-03-28T06:26:47.475Z,68.85
2023-03-28T06:31:52.837Z,69.29
2023-03-28T06:36:54.590Z,68.54
2023-03-28T06:42:02.399Z,67.70
2023-03-28T06:47:12.309Z,66.20
2023-03-28T06:52:15.742Z,68.84
2023-03-28T06:57:19.436Z,66.92
2023-03-28T07:02:23.747Z,65.95
2023-03-28T07:07:29.714Z,65.83
2023-03-28T07:12:31.432Z,66.49
2023-03-28T07:17:33.163Z,66.24
2023-03-28T07:22:35.370Z,64.86
2023-03-28T07:27:36.931Z,64.18
2023-03-28T07:32:48.053Z,63.80
2023-03-28T07:37:55.786Z,62.41
2023-03-28T07:43:20.116Z,62.90
2023-03-28T07:48:22.491Z,61.99
2023-03-28T07:53:24.065Z,61.44
2023-03-28T07:58:26.098Z,58.92
2023-03-28T08:03:30.878Z,57.32
2023-03-28T08:08:33.050Z,58.00
2023-03-28T08:13:53.664Z,56.99
2023-03-28T08:19:09.986Z,56.83
2023-03-28T08:24:32.893Z,58.49
2023-03-28T08:29:40.564Z,56.74
2023-03-28T08:34:42.424Z,57.03
2023-03-28T08:39:49.862Z,55.47
2023-03-28T08:45:08.745Z,53.99
2023-03-28T08:50:16.757Z,51.04
2023-03-28T08:55:41.404Z,54.99
2023-03-28T09:00:42.962Z,55.43
2023-03-28T09:06:02.224Z,54.16
2023-03-28T09:11:30.819Z,52.76
2023-03-28T09:16:51.682Z,51.48
2023-03-28T09:22:29.023Z,51.46
2023-03-28T09:27:33.672Z,49.30
2023-03-28T09:32:40.988Z,49.43
2023-03-28T09:37:44.820Z,49.11
2023-03-28T09:43:13.120Z,46.28
2023-03-28T09:48:31.133Z,46.44
2023-03-28T09:53:37.623Z,46.45
2023-03-28T09:58:52.983Z,45.81
2023-03-28T10:04:15.534Z,45.03
2023-03-28T10:09:54.571Z,45.70
2023-03-28T10:14:58.227Z,44.88
2023-03-28T10:20:24.022Z,43.26
2023-03-28T10:25:37.750Z,43.76
2023-03-28T10:30:40.617Z,44.10
2023-03-28T10:35:52.899Z,44.69
2023-03-28T10:41:09.432Z,43.57
2023-03-28T10:46:37.921Z,42.12
2023-03-28T10:52:22.818Z,40.76
2023-03-28T10:57:30.967Z,40.68
2023-03-28T11:03:15.709Z,42.90
2023-03-28T11:08:42.305Z,41.72
2023-03-28T11:14:08.642Z,41.84
2023-03-28T11:19:34.256Z,40.60
2023-03-28T11:24:40.771Z,41.13
2023-03-28T11:30:26.750Z,43.12
2023-03-28T11:35:59.500Z,39.66
2023-03-28T11:41:11.976Z,40.85
2023-03-28T11:46:51.303Z,41.70
2023-03-28T11:52:07.977Z,42.58
2023-03-28T11:57:25.306Z,40.92
2023-03-28T12:02:41.663Z,42.05
2023-03-28T12:07:50.570Z,42.34
2023-03-28T12:13:12.938Z,41.59
2023-03-28T12:18:41.525Z,41.77
2023-03-28T12:24:11.600Z,41.15
2023-03-28T12:29:51.109Z,42.13
2023-03-28T12:35:32.823Z,41.05
2023-03-28T12:40:59.466Z,40.92
2023-03-28T12:46:04.468Z,41.85
2023-03-28T12:51:18.101Z,41.02
2023-03-28T12:56:21.748Z,42.16
2023-03-28T13:01:41.203Z,41.13
2023-03-28T13:07:37.086Z,40.83
2023-03-28T13:12:53.697Z,40.93
2023-03-28T13:18:23.144Z,40.42
2023-03-28T13:23:36.610Z,41.20
2023-03-28T13:28:42.602Z,41.60
2023-03-28T13:33:47.465Z,41.73
2023-03-28T13:39:22.906Z,42.04
2023-03-28T13:44:41.467Z,43.68
2023-03-28T13:49:53.971Z,44.31
2023-03-28T13:55:16.570Z,42.91
2023-03-28T14:00:22.458Z,43.36
2023-03-28T14:05:29.425Z,44.23
2023-03-28T14:10:36.006Z,44.07
2023-03-28T14:15:39.790Z,44.95
2023-03-28T14:20:42.296Z,45.24
2023-03-28T14:25:43.876Z,42.31
2023-03-28T14:30:45.758Z,42.56
2023-03-28T14:36:18.466Z,42.34
2023-03-28T14:41:28.268Z,41.69
2023-03-28T14:46:31.553Z,42.43
2023-03-28T14:51:42.845Z,43.25
2023-03-28T14:56:45.269Z,42.63
2023-03-28T15:01:49.143Z,42.86
2023-03-28T15:06:55.487Z,42.07
2023-03-28T15:11:57.621Z,41.74
2023-03-28T15:16:59.882Z,41.83
2023-03-28T15:22:08.697Z,41.58
2023-03-28T15:27:20.377Z,41.95
2023-03-28T15:32:22.202Z,42.35
2023-03-28T15:37:26.214Z,42.81
2023-03-28T15:42:34.135Z,42.87
2023-03-28T15:47:35.835Z,43.37
2023-03-28T15:52:41.528Z,44.59
2023-03-28T15:57:45.791Z,46.87
2023-03-28T16:02:47.530Z,47.53
2023-03-28T16:07:50.697Z,47.09
2023-03-28T16:12:52.653Z,48.08
2023-03-28T16:18:12.859Z,48.40
2023-03-28T16:23:26.224Z,48.28
2023-03-28T16:28:27.944Z,49.01
2023-03-28T16:33:29.628Z,50.25
2023-03-28T16:38:31.203Z,51.03
2023-03-28T16:43:32.810Z,51.58
2023-03-28T16:48:35.006Z,52.15
2023-03-28T16:53:40.297Z,53.70
2023-03-28T16:58:42.676Z,53.77
2023-03-28T17:03:47.431Z,53.87
2023-03-28T17:08:49.440Z,55.19
2023-03-28T17:13:52.568Z,54.80
2023-03-28T17:18:54.892Z,55.82
2023-03-28T17:23:56.700Z,55.84
2023-03-28T17:28:58.415Z,56.43
2023-03-28T17:34:00.264Z,56.33
2023-03-28T17:39:03.042Z,56.81
2023-03-28T17:44:09.223Z,57.57
2023-03-28T17:49:10.897Z,58.02
2023-03-28T17:54:12.567Z,58.28
2023-03-28T17:59:14.198Z,58.05
2023-03-28T18:04:17.507Z,58.24
2023-03-28T18:09:39.832Z,58.90
2023-03-28T18:14:41.607Z,59.07
2023-03-28T18:19:43.230Z,59.89
2023-03-28T18:24:44.792Z,59.18
2023-03-28T18:29:47.556Z,59.81
2023-03-28T18:34:49.267Z,60.02
2023-03-28T18:39:50.814Z,60.26
2023-03-28T18:44:52.700Z,59.83
2023-03-28T18:49:54.390Z,60.16
2023-03-28T18:54:55.985Z,60.79
2023-03-28T18:59:57.552Z,60.29
2023-03-28T19:04:59.111Z,60.60
2023-03-28T19:10:00.987Z,60.81
2023-03-28T19:15:06.258Z,61.05
2023-03-28T19:20:12.581Z,60.99
2023-03-28T19:25:14.375Z,61.20
2023-03-28T19:30:16.134Z,61.11
2023-03-28T19:35:17.698Z,61.09
2023-03-28T19:40:19.271Z,61.43
2023-03-28T19:45:20.947Z,62.10
2023-03-28T19:50:23.191Z,62.11
2023-03-28T19:55:25.010Z,61.90
2023-03-28T20:00:26.701Z,62.19
2023-03-28T20:05:28.317Z,62.23
2023-03-28T20:10:29.889Z,62.79
2023-03-28T20:15:32.150Z,63.88
2023-03-28T20:20:33.774Z,63.84
2023-03-28T20:25:36.790Z,64.95
2023-03-28T20:30:38.760Z,65.08
2023-03-28T20:35:43.499Z,66.16
2023-03-28T20:40:45.175Z,66.56
2023-03-28T20:45:54.294Z,66.81
2023-03-28T20:50:56.074Z,66.85
2023-03-28T20:56:03.379Z,67.23
2023-03-28T21:01:06.582Z,67.21
2023-03-28T21:06:08.443Z,68.12
2023-03-28T21:11:10.191Z,68.22
2023-03-28T21:16:14.130Z,68.34
2023-03-28T21:21:17.854Z,68.23
2023-03-28T21:26:21.501Z,68.48
2023-03-28T21:31:25.998Z,68.64
2023-03-28T21:36:28.624Z,67.86
2023-03-28T21:41:30.243Z,69.15
2023-03-28T21:46:31.846Z,68.92
2023-03-28T21:51:33.782Z,68.76
2023-03-28T21:56:35.574Z,68.66
2023-03-28T22:01:37.469Z,69.19
2023-03-28T22:06:39.108Z,68.87
2023-03-28T22:11:42.094Z,69.65
2023-03-28T22:16:43.752Z,69.28
2023-03-28T22:21:45.382Z,69.12
2023-03-28T22:26:47.993Z,69.36
2023-03-28T22:31:49.790Z,68.15
2023-03-28T22:36:51.847Z,68.67
2023-03-28T22:41:54.118Z,68.49
2023-03-28T22:47:02.041Z,68.48
2023-03-28T22:52:04.805Z,67.96
2023-03-28T22:57:06.977Z,68.49
2023-03-28T23:02:08.768Z,68.24
2023-03-28T23:07:12.392Z,68.76
2023-03-28T23:12:14.100Z,68.80
2023-03-28T23:17:15.676Z,68.68
2023-03-28T23:22:17.390Z,68.65
2023-03-28T23:27:19.655Z,68.73
2023-03-28T23:32:21.236Z,68.82
2023-03-28T23:37:26.033Z,68.17
2023-03-28T23:42:27.576Z,68.18
2023-03-28T23:47:29.240Z,68.43
2023-03-28T23:52:31.255Z,68.38
2023-03-28T23:57:32.998Z,68.59
